sensor_id;sensor_type;location;lat;lon;timestamp;temperature;humidity
38910;DHT22;24676;51.360;12.354;2022-09-25T04:01:53;9.80;99.90
38910;DHT22;24676;51.360;12.354;2022-09-25T04:04:38;9.80;99.90
38910;DHT22;24676;51.360;12.354;2022-09-25T04:07:22;9.80;99.90
38910;DHT22;24676;51.360;12.354;2022-09-25T04:10:07;9.80;99.90
38910;DHT22;24676;51.360;12.354;2022-09-25T04:15:43;9.90;99.90
38910;DHT22;24676;51.360;12.354;2022-09-25T04:18:29;9.90;99.90
38910;DHT22;24676;51.360;12.354;2022-09-25T04:21:14;10.00;99.90
38910;DHT22;24676;51.360;12.354;2022-09-25T04:24:00;10.00;99.90
38910;DHT22;24676;51.360;12.354;2022-09-25T04:27:03;10.10;99.90
38910;DHT22;24676;51.360;12.354;2022-09-25T04:29:48;10.10;99.90
38910;DHT22;24676;51.360;12.354;2022-09-25T04:32:32;10.10;99.90
38910;DHT22;24676;51.360;12.354;2022-09-25T04:35:36;10.10;99.90
38910;DHT22;24676;51.360;12.354;2022-09-25T04:38:20;10.10;99.90
38910;DHT22;24676;51.360;12.354;2022-09-25T04:41:05;10.10;99.90
38910;DHT22;24676;51.360;12.354;2022-09-25T04:43:51;10.10;99.90
38910;DHT22;24676;51.360;12.354;2022-09-25T04:46:34;10.10;99.90
38910;DHT22;24676;51.360;12.354;2022-09-25T04:49:19;10.10;99.90
38910;DHT22;24676;51.360;12.354;2022-09-25T04:52:03;10.10;99.90
38910;DHT22;24676;51.360;12.354;2022-09-25T04:54:47;10.10;99.90
38910;DHT22;24676;51.360;12.354;2022-09-25T04:57:31;10.10;99.90
38910;DHT22;24676;51.360;12.354;2022-09-25T05:00:16;10.10;99.90
38910;DHT22;24676;51.360;12.354;2022-09-25T05:03:04;10.20;99.90
38910;DHT22;24676;51.360;12.354;2022-09-25T05:05:48;10.20;99.90
38910;DHT22;24676;51.360;12.354;2022-09-25T05:08:33;10.30;99.90
38910;DHT22;24676;51.360;12.354;2022-09-25T05:11:17;10.30;99.90
38910;DHT22;24676;51.360;12.354;2022-09-25T05:14:03;10.40;99.90
38910;DHT22;24676;51.360;12.354;2022-09-25T05:16:48;10.40;99.90
38910;DHT22;24676;51.360;12.354;2022-09-25T05:19:32;10.50;99.90
38910;DHT22;24676;51.360;12.354;2022-09-25T05:22:16;10.50;99.90
38910;DHT22;24676;51.360;12.354;2022-09-25T05:25:00;10.50;99.90
38910;DHT22;24676;51.360;12.354;2022-09-25T05:27:45;10.50;99.90
38910;DHT22;24676;51.360;12.354;2022-09-25T05:30:31;10.60;99.90
38910;DHT22;24676;51.360;12.354;2022-09-25T05:33:15;10.70;99.90
38910;DHT22;24676;51.360;12.354;2022-09-25T05:36:02;10.70;99.90
38910;DHT22;24676;51.360;12.354;2022-09-25T05:38:46;10.60;99.90
38910;DHT22;24676;51.360;12.354;2022-09-25T05:41:31;10.70;99.90
38910;DHT22;24676;51.360;12.354;2022-09-25T05:44:19;10.60;99.90
38910;DHT22;24676;51.360;12.354;2022-09-25T05:47:04;10.70;99.90
38910;DHT22;24676;51.360;12.354;2022-09-25T05:49:50;10.70;99.90
38910;DHT22;24676;51.360;12.354;2022-09-25T05:52:35;10.70;99.90
38910;DHT22;24676;51.360;12.354;2022-09-25T05:55:19;10.70;99.90
38910;DHT22;24676;51.360;12.354;2022-09-25T05:58:04;10.70;99.90
38910;DHT22;24676;51.360;12.354;2022-09-25T06:00:48;10.70;99.90
38910;DHT22;24676;51.360;12.354;2022-09-25T06:03:32;10.80;99.90
38910;DHT22;24676;51.360;12.354;2022-09-25T06:06:16;10.80;99.90
38910;DHT22;24676;51.360;12.354;2022-09-25T06:09:00;10.80;99.90
38910;DHT22;24676;51.360;12.354;2022-09-25T06:11:45;10.90;99.90
38910;DHT22;24676;51.360;12.354;2022-09-25T06:14:30;11.00;99.90
38910;DHT22;24676;51.360;12.354;2022-09-25T06:17:14;11.00;99.90
38910;DHT22;24676;51.360;12.354;2022-09-25T06:19:59;11.10;99.90
38910;DHT22;24676;51.360;12.354;2022-09-25T06:22:49;11.10;99.90
38910;DHT22;24676;51.360;12.354;2022-09-25T06:25:34;11.20;99.90
38910;DHT22;24676;51.360;12.354;2022-09-25T06:28:21;11.30;99.90
38910;DHT22;24676;51.360;12.354;2022-09-25T06:31:05;11.30;99.90
38910;DHT22;24676;51.360;12.354;2022-09-25T06:33:50;11.40;99.90
38910;DHT22;24676;51.360;12.354;2022-09-25T06:36:34;11.50;99.90
38910;DHT22;24676;51.360;12.354;2022-09-25T06:39:19;11.60;99.90
38910;DHT22;24676;51.360;12.354;2022-09-25T06:42:03;11.60;99.90
38910;DHT22;24676;51.360;12.354;2022-09-25T06:44:48;11.70;99.90
38910;DHT22;24676;51.360;12.354;2022-09-25T06:47:32;11.80;99.90
38910;DHT22;24676;51.360;12.354;2022-09-25T06:50:17;11.90;99.90
38910;DHT22;24676;51.360;12.354;2022-09-25T06:53:01;12.00;99.90
38910;DHT22;24676;51.360;12.354;2022-09-25T06:55:46;12.20;99.90
38910;DHT22;24676;51.360;12.354;2022-09-25T06:58:30;12.20;99.90
38910;DHT22;24676;51.360;12.354;2022-09-25T07:01:15;12.30;99.90
38910;DHT22;24676;51.360;12.354;2022-09-25T07:03:59;12.40;99.90
38910;DHT22;24676;51.360;12.354;2022-09-25T07:06:46;12.40;99.90
38910;DHT22;24676;51.360;12.354;2022-09-25T07:09:31;12.50;99.90
38910;DHT22;24676;51.360;12.354;2022-09-25T07:12:15;12.60;99.90
38910;DHT22;24676;51.360;12.354;2022-09-25T07:15:01;12.70;99.90
38910;DHT22;24676;51.360;12.354;2022-09-25T07:17:45;12.90;99.90
38910;DHT22;24676;51.360;12.354;2022-09-25T07:20:32;13.00;99.90
38910;DHT22;24676;51.360;12.354;2022-09-25T07:23:18;13.00;99.90
38910;DHT22;24676;51.360;12.354;2022-09-25T07:28:57;13.10;99.90
38910;DHT22;24676;51.360;12.354;2022-09-25T07:31:42;13.20;99.90
38910;DHT22;24676;51.360;12.354;2022-09-25T07:34:26;13.20;99.90
38910;DHT22;24676;51.360;12.354;2022-09-25T07:37:10;13.20;99.90
38910;DHT22;24676;51.360;12.354;2022-09-25T07:39:55;13.30;99.90
38910;DHT22;24676;51.360;12.354;2022-09-25T07:42:40;13.40;99.90
38910;DHT22;24676;51.360;12.354;2022-09-25T07:45:24;13.60;99.90
38910;DHT22;24676;51.360;12.354;2022-09-25T07:48:09;13.70;99.90
38910;DHT22;24676;51.360;12.354;2022-09-25T07:50:53;13.90;99.90
38910;DHT22;24676;51.360;12.354;2022-09-25T07:53:38;14.20;99.90
38910;DHT22;24676;51.360;12.354;2022-09-25T07:56:26;14.40;99.90
38910;DHT22;24676;51.360;12.354;2022-09-25T07:59:11;14.60;99.90
38910;DHT22;24676;51.360;12.354;2022-09-25T08:01:55;14.80;99.90
38910;DHT22;24676;51.360;12.354;2022-09-25T08:04:41;14.90;99.90
38910;DHT22;24676;51.360;12.354;2022-09-25T08:07:27;15.10;99.90
38910;DHT22;24676;51.360;12.354;2022-09-25T08:10:11;15.40;99.90
38910;DHT22;24676;51.360;12.354;2022-09-25T08:12:56;15.70;99.90
38910;DHT22;24676;51.360;12.354;2022-09-25T08:15:40;15.90;99.90
38910;DHT22;24676;51.360;12.354;2022-09-25T08:18:24;15.90;99.90
38910;DHT22;24676;51.360;12.354;2022-09-25T08:21:09;15.80;99.90
38910;DHT22;24676;51.360;12.354;2022-09-25T08:23:53;15.90;99.90
38910;DHT22;24676;51.360;12.354;2022-09-25T08:26:39;16.00;99.90
38910;DHT22;24676;51.360;12.354;2022-09-25T08:29:23;16.10;99.90
38910;DHT22;24676;51.360;12.354;2022-09-25T08:32:08;16.40;99.90
38910;DHT22;24676;51.360;12.354;2022-09-25T08:34:52;16.80;99.90
38910;DHT22;24676;51.360;12.354;2022-09-25T08:37:41;17.10;99.90
38910;DHT22;24676;51.360;12.354;2022-09-25T08:40:28;17.40;99.90
38910;DHT22;24676;51.360;12.354;2022-09-25T08:43:19;17.80;99.90
38910;DHT22;24676;51.360;12.354;2022-09-25T08:46:19;18.40;99.90
38910;DHT22;24676;51.360;12.354;2022-09-25T08:49:28;19.20;99.90
38910;DHT22;24676;51.360;12.354;2022-09-25T08:52:18;19.80;99.80
38910;DHT22;24676;51.360;12.354;2022-09-25T08:55:12;20.60;93.30
38910;DHT22;24676;51.360;12.354;2022-09-25T08:57:56;21.60;88.50
38910;DHT22;24676;51.360;12.354;2022-09-25T09:00:41;22.10;77.50
38910;DHT22;24676;51.360;12.354;2022-09-25T09:03:27;22.50;75.40
38910;DHT22;24676;51.360;12.354;2022-09-25T09:06:14;22.70;68.00
38910;DHT22;24676;51.360;12.354;2022-09-25T09:09:05;22.40;68.60
38910;DHT22;24676;51.360;12.354;2022-09-25T09:11:55;22.40;68.70
38910;DHT22;24676;51.360;12.354;2022-09-25T09:14:46;22.80;65.00
38910;DHT22;24676;51.360;12.354;2022-09-25T09:17:32;23.10;64.80
38910;DHT22;24676;51.360;12.354;2022-09-25T09:20:22;23.20;64.70
38910;DHT22;24676;51.360;12.354;2022-09-25T09:23:09;23.20;63.40
38910;DHT22;24676;51.360;12.354;2022-09-25T09:26:00;23.60;62.60
38910;DHT22;24676;51.360;12.354;2022-09-25T09:34:45;23.30;60.00
38910;DHT22;24676;51.360;12.354;2022-09-25T09:46:53;24.00;55.90
38910;DHT22;24676;51.360;12.354;2022-09-25T09:52:32;24.00;56.90
38910;DHT22;24676;51.360;12.354;2022-09-25T09:58:03;23.80;56.70
38910;DHT22;24676;51.360;12.354;2022-09-25T10:00:51;23.90;55.80
38910;DHT22;24676;51.360;12.354;2022-09-25T10:03:36;23.60;57.00
38910;DHT22;24676;51.360;12.354;2022-09-25T10:06:21;23.30;57.90
38910;DHT22;24676;51.360;12.354;2022-09-25T10:09:09;23.10;58.80
38910;DHT22;24676;51.360;12.354;2022-09-25T10:12:01;22.60;59.50
38910;DHT22;24676;51.360;12.354;2022-09-25T10:14:46;22.60;59.80
38910;DHT22;24676;51.360;12.354;2022-09-25T10:17:31;22.30;59.70
38910;DHT22;24676;51.360;12.354;2022-09-25T10:20:19;22.20;61.90
38910;DHT22;24676;51.360;12.354;2022-09-25T10:23:05;22.90;61.80
38910;DHT22;24676;51.360;12.354;2022-09-25T10:25:59;23.90;59.40
38910;DHT22;24676;51.360;12.354;2022-09-25T10:28:44;25.00;57.90
38910;DHT22;24676;51.360;12.354;2022-09-25T10:31:31;25.30;54.50
38910;DHT22;24676;51.360;12.354;2022-09-25T10:34:18;25.60;52.80
38910;DHT22;24676;51.360;12.354;2022-09-25T10:37:12;26.10;51.40
38910;DHT22;24676;51.360;12.354;2022-09-25T10:40:03;26.70;50.20
38910;DHT22;24676;51.360;12.354;2022-09-25T10:42:48;26.20;50.70
38910;DHT22;24676;51.360;12.354;2022-09-25T10:45:44;26.70;50.00
38910;DHT22;24676;51.360;12.354;2022-09-25T10:48:38;27.00;49.10
38910;DHT22;24676;51.360;12.354;2022-09-25T10:51:59;27.20;47.00
38910;DHT22;24676;51.360;12.354;2022-09-25T10:54:43;27.30;47.70
38910;DHT22;24676;51.360;12.354;2022-09-25T10:57:30;27.60;46.80
38910;DHT22;24676;51.360;12.354;2022-09-25T11:00:19;27.30;47.10
38910;DHT22;24676;51.360;12.354;2022-09-25T11:03:04;27.40;46.90
38910;DHT22;24676;51.360;12.354;2022-09-25T11:05:54;27.20;47.80
38910;DHT22;24676;51.360;12.354;2022-09-25T11:08:41;27.30;47.70
38910;DHT22;24676;51.360;12.354;2022-09-25T11:11:25;27.20;47.70
38910;DHT22;24676;51.360;12.354;2022-09-25T11:14:30;27.30;46.90
38910;DHT22;24676;51.360;12.354;2022-09-25T11:17:39;27.50;46.20
38910;DHT22;24676;51.360;12.354;2022-09-25T11:20:28;26.90;47.50
38910;DHT22;24676;51.360;12.354;2022-09-25T11:26:20;25.40;50.70
38910;DHT22;24676;51.360;12.354;2022-09-25T11:32:09;24.20;55.10
38910;DHT22;24676;51.360;12.354;2022-09-25T11:38:55;23.90;54.60
38910;DHT22;24676;51.360;12.354;2022-09-25T11:41:42;24.00;54.60
38910;DHT22;24676;51.360;12.354;2022-09-25T11:47:39;23.50;54.50
38910;DHT22;24676;51.360;12.354;2022-09-25T11:50:31;23.40;55.80
38910;DHT22;24676;51.360;12.354;2022-09-25T12:05:35;22.70;56.90
38910;DHT22;24676;51.360;12.354;2022-09-25T12:16:56;26.70;49.20
38910;DHT22;24676;51.360;12.354;2022-09-25T12:31:18;28.90;43.70
38910;DHT22;24676;51.360;12.354;2022-09-25T12:36:52;26.70;47.60
38910;DHT22;24676;51.360;12.354;2022-09-25T12:39:40;25.20;50.40
38910;DHT22;24676;51.360;12.354;2022-09-25T12:42:39;24.10;51.20
38910;DHT22;24676;51.360;12.354;2022-09-25T12:48:37;22.80;54.60
38910;DHT22;24676;51.360;12.354;2022-09-25T12:51:38;22.50;55.00
38910;DHT22;24676;51.360;12.354;2022-09-25T12:57:26;22.10;57.40
38910;DHT22;24676;51.360;12.354;2022-09-25T13:00:18;22.00;56.30
38910;DHT22;24676;51.360;12.354;2022-09-25T13:03:11;21.70;57.60
38910;DHT22;24676;51.360;12.354;2022-09-25T13:09:44;21.30;58.80
38910;DHT22;24676;51.360;12.354;2022-09-25T13:12:37;21.30;59.00
38910;DHT22;24676;51.360;12.354;2022-09-25T13:15:27;21.10;60.70
38910;DHT22;24676;51.360;12.354;2022-09-25T13:18:16;21.10;61.40
38910;DHT22;24676;51.360;12.354;2022-09-25T13:24:04;21.20;61.50
38910;DHT22;24676;51.360;12.354;2022-09-25T13:26:53;21.30;60.40
38910;DHT22;24676;51.360;12.354;2022-09-25T13:29:38;21.20;59.50
38910;DHT22;24676;51.360;12.354;2022-09-25T13:32:24;21.30;58.60
38910;DHT22;24676;51.360;12.354;2022-09-25T13:35:15;21.30;59.70
38910;DHT22;24676;51.360;12.354;2022-09-25T13:38:14;21.20;60.90
38910;DHT22;24676;51.360;12.354;2022-09-25T13:41:18;21.30;61.40
38910;DHT22;24676;51.360;12.354;2022-09-25T13:58:59;21.30;59.20
38910;DHT22;24676;51.360;12.354;2022-09-25T14:01:44;21.20;59.60
38910;DHT22;24676;51.360;12.354;2022-09-25T14:04:30;21.20;58.50
38910;DHT22;24676;51.360;12.354;2022-09-25T14:07:19;21.20;59.90
38910;DHT22;24676;51.360;12.354;2022-09-25T14:10:06;21.20;59.40
38910;DHT22;24676;51.360;12.354;2022-09-25T14:12:51;21.10;60.40
38910;DHT22;24676;51.360;12.354;2022-09-25T14:15:35;21.10;59.80
38910;DHT22;24676;51.360;12.354;2022-09-25T14:18:25;21.10;59.20
38910;DHT22;24676;51.360;12.354;2022-09-25T14:21:10;21.20;59.10
38910;DHT22;24676;51.360;12.354;2022-09-25T14:24:10;21.20;58.90
38910;DHT22;24676;51.360;12.354;2022-09-25T14:26:59;21.10;58.80
38910;DHT22;24676;51.360;12.354;2022-09-25T14:29:44;21.10;59.10
38910;DHT22;24676;51.360;12.354;2022-09-25T14:35:22;20.90;59.60
38910;DHT22;24676;51.360;12.354;2022-09-25T14:41:26;20.90;59.40
38910;DHT22;24676;51.360;12.354;2022-09-25T14:47:01;20.80;60.30
38910;DHT22;24676;51.360;12.354;2022-09-25T14:49:47;20.70;60.60
38910;DHT22;24676;51.360;12.354;2022-09-25T14:52:33;20.60;61.10
38910;DHT22;24676;51.360;12.354;2022-09-25T14:55:18;20.40;61.90
38910;DHT22;24676;51.360;12.354;2022-09-25T14:58:08;20.20;62.90
38910;DHT22;24676;51.360;12.354;2022-09-25T15:00:58;20.20;62.70
38910;DHT22;24676;51.360;12.354;2022-09-25T15:03:47;20.10;63.00
38910;DHT22;24676;51.360;12.354;2022-09-25T15:06:33;20.10;62.40
38910;DHT22;24676;51.360;12.354;2022-09-25T15:12:42;19.80;63.50
38910;DHT22;24676;51.360;12.354;2022-09-25T15:15:28;19.70;63.90
38910;DHT22;24676;51.360;12.354;2022-09-25T15:18:12;19.50;64.50
38910;DHT22;24676;51.360;12.354;2022-09-25T15:20:56;19.30;65.40
38910;DHT22;24676;51.360;12.354;2022-09-25T15:23:41;19.10;66.50
38910;DHT22;24676;51.360;12.354;2022-09-25T15:26:27;19.00;67.40
38910;DHT22;24676;51.360;12.354;2022-09-25T15:29:15;18.80;68.60
38910;DHT22;24676;51.360;12.354;2022-09-25T15:32:01;18.60;69.90
38910;DHT22;24676;51.360;12.354;2022-09-25T15:34:45;18.50;70.90
38910;DHT22;24676;51.360;12.354;2022-09-25T15:37:29;18.30;71.90
38910;DHT22;24676;51.360;12.354;2022-09-25T15:42:58;18.10;75.20
38910;DHT22;24676;51.360;12.354;2022-09-25T15:48:39;18.00;78.20
38910;DHT22;24676;51.360;12.354;2022-09-25T15:51:24;17.90;79.50
38910;DHT22;24676;51.360;12.354;2022-09-25T15:57:02;17.80;82.40
38910;DHT22;24676;51.360;12.354;2022-09-25T15:59:49;17.70;86.30
38910;DHT22;24676;51.360;12.354;2022-09-25T16:02:56;17.60;90.00
38910;DHT22;24676;51.360;12.354;2022-09-25T16:06:01;17.50;92.20
38910;DHT22;24676;51.360;12.354;2022-09-25T16:08:46;17.40;94.30
38910;DHT22;24676;51.360;12.354;2022-09-25T16:11:31;17.30;95.70
38910;DHT22;24676;51.360;12.354;2022-09-25T16:14:20;17.20;96.70
38910;DHT22;24676;51.360;12.354;2022-09-25T16:17:05;17.10;98.20
38910;DHT22;24676;51.360;12.354;2022-09-25T16:20:05;17.00;99.10
38910;DHT22;24676;51.360;12.354;2022-09-25T16:22:51;16.90;99.90
38910;DHT22;24676;51.360;12.354;2022-09-25T16:25:42;16.70;99.90
38910;DHT22;24676;51.360;12.354;2022-09-25T16:28:29;16.50;99.90
38910;DHT22;24676;51.360;12.354;2022-09-25T16:31:19;16.40;99.90
38910;DHT22;24676;51.360;12.354;2022-09-25T16:34:04;16.20;99.90
38910;DHT22;24676;51.360;12.354;2022-09-25T16:36:50;16.00;99.90
38910;DHT22;24676;51.360;12.354;2022-09-25T16:39:36;15.90;99.90
38910;DHT22;24676;51.360;12.354;2022-09-25T16:45:17;15.60;99.90
38910;DHT22;24676;51.360;12.354;2022-09-25T16:51:12;15.40;99.90
38910;DHT22;24676;51.360;12.354;2022-09-25T16:53:59;15.30;99.90
38910;DHT22;24676;51.360;12.354;2022-09-25T16:56:45;15.30;99.90
38910;DHT22;24676;51.360;12.354;2022-09-25T16:59:30;15.20;99.90
38910;DHT22;24676;51.360;12.354;2022-09-25T17:02:18;15.10;99.90
38910;DHT22;24676;51.360;12.354;2022-09-25T17:05:05;15.10;99.90
38910;DHT22;24676;51.360;12.354;2022-09-25T17:07:50;15.00;99.90
38910;DHT22;24676;51.360;12.354;2022-09-25T17:10:35;15.00;99.90
38910;DHT22;24676;51.360;12.354;2022-09-25T17:13:26;14.90;99.90
38910;DHT22;24676;51.360;12.354;2022-09-25T17:16:10;14.90;99.90
38910;DHT22;24676;51.360;12.354;2022-09-25T17:18:54;14.90;99.90
38910;DHT22;24676;51.360;12.354;2022-09-25T17:21:39;14.90;99.90
38910;DHT22;24676;51.360;12.354;2022-09-25T17:24:25;14.90;99.90
38910;DHT22;24676;51.360;12.354;2022-09-25T17:27:11;14.90;99.90
38910;DHT22;24676;51.360;12.354;2022-09-25T17:29:55;14.90;99.90
38910;DHT22;24676;51.360;12.354;2022-09-25T17:32:40;14.90;99.90
38910;DHT22;24676;51.360;12.354;2022-09-25T17:35:37;14.90;99.90
38910;DHT22;24676;51.360;12.354;2022-09-25T17:38:23;14.90;99.90
38910;DHT22;24676;51.360;12.354;2022-09-25T17:41:23;14.90;99.90
38910;DHT22;24676;51.360;12.354;2022-09-25T17:44:10;14.90;99.90
38910;DHT22;24676;51.360;12.354;2022-09-25T17:46:55;14.90;99.90
38910;DHT22;24676;51.360;12.354;2022-09-25T17:49:39;14.90;99.90
38910;DHT22;24676;51.360;12.354;2022-09-25T17:52:23;14.90;99.90
38910;DHT22;24676;51.360;12.354;2022-09-25T17:55:12;14.90;99.90
38910;DHT22;24676;51.360;12.354;2022-09-25T17:57:58;14.80;99.90
38910;DHT22;24676;51.360;12.354;2022-09-25T18:00:42;14.80;99.90
38910;DHT22;24676;51.360;12.354;2022-09-25T18:03:30;14.90;99.90
38910;DHT22;24676;51.360;12.354;2022-09-25T18:06:14;14.80;99.90
38910;DHT22;24676;51.360;12.354;2022-09-25T18:08:58;14.80;99.90
38910;DHT22;24676;51.360;12.354;2022-09-25T18:11:42;14.80;99.90
38910;DHT22;24676;51.360;12.354;2022-09-25T18:14:26;14.80;99.90
38910;DHT22;24676;51.360;12.354;2022-09-25T18:17:14;14.80;99.90
38910;DHT22;24676;51.360;12.354;2022-09-25T18:19:58;14.80;99.90
38910;DHT22;24676;51.360;12.354;2022-09-25T18:23:01;14.80;99.90
38910;DHT22;24676;51.360;12.354;2022-09-25T18:25:45;14.80;99.90
38910;DHT22;24676;51.360;12.354;2022-09-25T18:28:29;14.80;99.90
38910;DHT22;24676;51.360;12.354;2022-09-25T18:31:14;14.80;99.90
38910;DHT22;24676;51.360;12.354;2022-09-25T18:33:58;14.80;99.90
38910;DHT22;24676;51.360;12.354;2022-09-25T18:36:42;14.80;99.90
38910;DHT22;24676;51.360;12.354;2022-09-25T18:39:26;14.80;99.90
38910;DHT22;24676;51.360;12.354;2022-09-25T18:42:10;14.80;99.90
38910;DHT22;24676;51.360;12.354;2022-09-25T18:44:54;14.80;99.90
38910;DHT22;24676;51.360;12.354;2022-09-25T18:47:39;14.80;99.90
38910;DHT22;24676;51.360;12.354;2022-09-25T18:50:23;14.80;99.90
38910;DHT22;24676;51.360;12.354;2022-09-25T18:53:09;14.70;99.90
38910;DHT22;24676;51.360;12.354;2022-09-25T18:55:54;14.70;99.90
38910;DHT22;24676;51.360;12.354;2022-09-25T18:58:38;14.70;99.90
38910;DHT22;24676;51.360;12.354;2022-09-25T19:01:22;14.70;99.90
38910;DHT22;24676;51.360;12.354;2022-09-25T19:04:06;14.70;99.90
38910;DHT22;24676;51.360;12.354;2022-09-25T19:06:51;14.70;99.90
38910;DHT22;24676;51.360;12.354;2022-09-25T19:09:35;14.70;99.90
38910;DHT22;24676;51.360;12.354;2022-09-25T19:12:20;14.70;99.90
38910;DHT22;24676;51.360;12.354;2022-09-25T19:15:04;14.70;99.90
38910;DHT22;24676;51.360;12.354;2022-09-25T19:17:48;14.70;99.90
38910;DHT22;24676;51.360;12.354;2022-09-25T19:20:32;14.60;99.90
38910;DHT22;24676;51.360;12.354;2022-09-25T19:23:17;14.60;99.90
38910;DHT22;24676;51.360;12.354;2022-09-25T19:26:03;14.60;99.90
38910;DHT22;24676;51.360;12.354;2022-09-25T19:28:48;14.60;99.90
38910;DHT22;24676;51.360;12.354;2022-09-25T19:31:32;14.50;99.90
38910;DHT22;24676;51.360;12.354;2022-09-25T19:34:16;14.50;99.90
38910;DHT22;24676;51.360;12.354;2022-09-25T19:37:03;14.50;99.90
38910;DHT22;24676;51.360;12.354;2022-09-25T19:39:47;14.50;99.90
38910;DHT22;24676;51.360;12.354;2022-09-25T19:42:50;14.40;99.90
38910;DHT22;24676;51.360;12.354;2022-09-25T19:45:34;14.40;99.90
38910;DHT22;24676;51.360;12.354;2022-09-25T19:48:20;14.40;99.90
38910;DHT22;24676;51.360;12.354;2022-09-25T19:51:06;14.40;99.90
38910;DHT22;24676;51.360;12.354;2022-09-25T19:53:51;14.40;99.90
38910;DHT22;24676;51.360;12.354;2022-09-25T19:56:35;14.30;99.90
38910;DHT22;24676;51.360;12.354;2022-09-25T19:59:23;14.30;99.90
38910;DHT22;24676;51.360;12.354;2022-09-25T20:02:08;14.30;99.90
38910;DHT22;24676;51.360;12.354;2022-09-25T20:04:52;14.30;99.90
38910;DHT22;24676;51.360;12.354;2022-09-25T20:07:36;14.30;99.90
38910;DHT22;24676;51.360;12.354;2022-09-25T20:10:20;14.30;99.90
38910;DHT22;24676;51.360;12.354;2022-09-25T20:13:05;14.30;99.90
38910;DHT22;24676;51.360;12.354;2022-09-25T20:15:49;14.20;99.90
38910;DHT22;24676;51.360;12.354;2022-09-25T20:18:34;14.20;99.90
38910;DHT22;24676;51.360;12.354;2022-09-25T20:21:19;14.20;99.90
38910;DHT22;24676;51.360;12.354;2022-09-25T20:24:06;14.20;99.90
38910;DHT22;24676;51.360;12.354;2022-09-25T20:26:51;14.20;99.90
38910;DHT22;24676;51.360;12.354;2022-09-25T20:29:35;14.20;99.90
38910;DHT22;24676;51.360;12.354;2022-09-25T20:32:19;14.10;99.90
38910;DHT22;24676;51.360;12.354;2022-09-25T20:35:03;14.10;99.90
38910;DHT22;24676;51.360;12.354;2022-09-25T20:37:48;14.10;99.90
38910;DHT22;24676;51.360;12.354;2022-09-25T20:40:33;14.10;99.90
38910;DHT22;24676;51.360;12.354;2022-09-25T20:43:17;14.10;99.90
38910;DHT22;24676;51.360;12.354;2022-09-25T20:46:02;14.00;99.90
38910;DHT22;24676;51.360;12.354;2022-09-25T20:48:47;14.00;99.90
38910;DHT22;24676;51.360;12.354;2022-09-25T20:51:33;14.00;99.90
38910;DHT22;24676;51.360;12.354;2022-09-25T20:54:18;14.00;99.90
38910;DHT22;24676;51.360;12.354;2022-09-25T20:57:04;14.00;99.90
38910;DHT22;24676;51.360;12.354;2022-09-25T20:59:48;14.00;99.90
